Time;durP1;ratioP1;P1;durP2;ratioP2;P2;SDS_P1;SDS_P2;PMS_P1;PMS_P2;Temp;Humidity;BMP_temperature;BMP_pressure;BME280_temperature;BME280_humidity;BME280_pressure;Samples;Min_cycle;Max_cycle;Signal;HPM_P1;HPM_P2
2022/09/15 00:02:45;;;;;;;8.20;2.78;;;;;;;;;;10050496;28;20076;-61
2022/09/15 00:07:39;;;;;;;16.20;4.53;;;;;;;;;;10050783;28;20050;-61
2022/09/15 00:12:36;;;;;;;6.30;2.38;;;;;;;;;;10051464;28;20042;-61
2022/09/15 00:17:30;;;;;;;15.13;3.78;;;;;;;;;;10054559;28;20046;-63
2022/09/15 00:22:25;;;;;;;8.48;2.17;;;;;;;;;;10040830;28;20077;-62
2022/09/15 00:27:19;;;;;;;15.00;2.30;;;;;;;;;;10033773;28;20513;-62
2022/09/15 00:32:12;;;;;;;12.25;3.50;;;;;;;;;;10035685;28;20076;-62
2022/09/15 00:37:06;;;;;;;11.10;1.98;;;;;;;;;;10060288;28;20084;-62
2022/09/15 00:41:59;;;;;;;11.68;2.72;;;;;;;;;;10044784;28;20050;-62
2022/09/15 00:46:53;;;;;;;8.75;1.77;;;;;;;;;;10044091;28;20068;-62
2022/09/15 00:52:13;;;;;;;11.43;3.45;;;;;;;;;;10023491;28;20049;-62
2022/09/15 00:57:38;;;;;;;11.98;3.03;;;;;;;;;;10038385;28;20060;-62
2022/09/15 01:02:33;;;;;;;8.30;2.65;;;;;;;;;;10015285;28;20042;-62
2022/09/15 01:07:38;;;;;;;10.90;2.95;;;;;;;;;;10026647;28;20563;-62
2022/09/15 01:12:31;;;;;;;18.92;3.45;;;;;;;;;;10040181;28;20120;-62
2022/09/15 01:17:48;;;;;;;12.93;3.28;;;;;;;;;;10038765;28;20057;-62
2022/09/15 01:22:57;;;;;;;10.27;2.88;;;;;;;;;;10045288;28;20049;-62
2022/09/15 01:28:33;;;;;;;11.15;2.97;;;;;;;;;;10040209;28;20103;-62
2022/09/15 01:34:01;;;;;;;9.38;3.22;;;;;;;;;;9960621;28;20456;-62
2022/09/15 01:39:18;;;;;;;12.03;2.67;;;;;;;;;;10047600;28;20054;-63
2022/09/15 01:44:20;;;;;;;14.52;2.22;;;;;;;;;;10049291;28;20045;-63
2022/09/15 01:49:17;;;;;;;8.48;2.65;;;;;;;;;;10026935;28;20448;-63
2022/09/15 01:54:29;;;;;;;9.90;1.63;;;;;;;;;;10016457;28;20460;-63
2022/09/15 01:59:43;;;;;;;8.25;2.30;;;;;;;;;;10012278;28;20058;-63
2022/09/15 02:05:00;;;;;;;10.13;2.38;;;;;;;;;;10031469;28;20056;-63
2022/09/15 02:09:59;;;;;;;13.90;2.17;;;;;;;;;;10045828;28;20068;-63
2022/09/15 02:14:57;;;;;;;6.20;1.83;;;;;;;;;;10028779;28;20056;-62
2022/09/15 02:19:55;;;;;;;14.98;3.70;;;;;;;;;;10029717;28;20084;-63
2022/09/15 02:25:08;;;;;;;6.97;1.92;;;;;;;;;;10035987;28;20042;-62
2022/09/15 02:30:08;;;;;;;6.95;2.05;;;;;;;;;;10054010;28;20428;-63
2022/09/15 02:35:06;;;;;;;8.73;2.20;;;;;;;;;;10055232;28;20055;-62
2022/09/15 02:40:01;;;;;;;10.55;2.47;;;;;;;;;;10056568;28;20084;-63
2022/09/15 02:44:54;;;;;;;9.20;1.63;;;;;;;;;;10055939;28;20060;-63
2022/09/15 02:49:48;;;;;;;2.45;1.33;;;;;;;;;;10049744;28;20087;-63
2022/09/15 02:54:42;;;;;;;8.18;2.03;;;;;;;;;;10052415;28;20054;-63
2022/09/15 03:04:48;;;;;;;6.55;1.70;;;;;;;;;;10044523;28;20057;-63
2022/09/15 03:09:43;;;;;;;12.65;2.05;;;;;;;;;;10050236;28;20050;-62
2022/09/15 03:14:37;;;;;;;4.78;2.03;;;;;;;;;;10061745;28;20065;-63
2022/09/15 03:19:30;;;;;;;6.47;1.55;;;;;;;;;;10054987;28;20057;-63
2022/09/15 03:24:24;;;;;;;9.65;1.95;;;;;;;;;;10054660;28;20065;-63
2022/09/15 03:29:18;;;;;;;6.97;2.15;;;;;;;;;;10043756;28;20577;-63
2022/09/15 03:34:12;;;;;;;6.60;1.98;;;;;;;;;;10035606;28;20046;-63
2022/09/15 03:39:05;;;;;;;6.68;2.05;;;;;;;;;;10038827;28;20104;-63
2022/09/15 03:43:59;;;;;;;7.55;1.90;;;;;;;;;;10040362;28;20148;-62
2022/09/15 03:48:54;;;;;;;6.57;1.77;;;;;;;;;;10043036;28;20042;-63
2022/09/15 03:53:49;;;;;;;11.68;1.90;;;;;;;;;;10054691;28;20459;-63
2022/09/15 03:58:42;;;;;;;7.15;1.90;;;;;;;;;;10042087;28;20444;-62
2022/09/15 04:03:36;;;;;;;5.95;2.10;;;;;;;;;;10045888;28;20057;-63
2022/09/15 04:08:36;;;;;;;9.20;2.00;;;;;;;;;;10054217;28;20099;-63
2022/09/15 04:13:30;;;;;;;8.20;2.17;;;;;;;;;;10064739;28;20076;-62
2022/09/15 04:18:24;;;;;;;9.40;2.35;;;;;;;;;;10066009;28;20099;-63
2022/09/15 04:23:19;;;;;;;8.15;2.03;;;;;;;;;;10054877;28;20070;-62
2022/09/15 04:28:13;;;;;;;4.70;1.85;;;;;;;;;;10044046;28;20084;-62
2022/09/15 04:33:08;;;;;;;8.48;2.40;;;;;;;;;;10046356;28;20140;-62
2022/09/15 04:38:02;;;;;;;7.90;2.20;;;;;;;;;;10053341;28;20053;-63
2022/09/15 04:42:56;;;;;;;10.05;2.40;;;;;;;;;;10049669;28;20059;-63
2022/09/15 04:47:52;;;;;;;5.30;2.10;;;;;;;;;;10040514;28;20128;-63
2022/09/15 04:52:48;;;;;;;5.35;2.33;;;;;;;;;;10045937;28;20572;-62
2022/09/15 04:57:41;;;;;;;15.07;2.70;;;;;;;;;;10035216;28;20665;-62
2022/09/15 05:02:35;;;;;;;12.13;2.47;;;;;;;;;;10044871;28;20077;-62
2022/09/15 05:07:29;;;;;;;8.77;3.72;;;;;;;;;;10040207;28;20077;-63
2022/09/15 05:12:23;;;;;;;9.98;4.78;;;;;;;;;;10045087;28;20061;-63
2022/09/15 05:17:17;;;;;;;10.25;4.60;;;;;;;;;;10043568;28;20057;-62
2022/09/15 05:22:13;;;;;;;10.13;3.92;;;;;;;;;;10046370;28;20052;-62
2022/09/15 05:27:09;;;;;;;10.88;3.65;;;;;;;;;;10021240;28;20049;-61
2022/09/15 05:32:03;;;;;;;12.50;4.35;;;;;;;;;;10026657;28;20065;-61
2022/09/15 05:36:57;;;;;;;11.98;3.88;;;;;;;;;;10036583;28;20054;-60
2022/09/15 05:41:51;;;;;;;10.30;4.30;;;;;;;;;;10037148;28;20118;-60
2022/09/15 05:46:44;;;;;;;9.38;3.67;;;;;;;;;;10038640;28;20053;-60
2022/09/15 05:51:38;;;;;;;9.93;4.20;;;;;;;;;;10028991;28;20052;-62
2022/09/15 05:56:32;;;;;;;13.60;5.18;;;;;;;;;;10044613;28;20054;-61
2022/09/15 06:01:28;;;;;;;15.35;5.13;;;;;;;;;;10048960;28;20053;-61
2022/09/15 06:06:22;;;;;;;7.40;3.97;;;;;;;;;;10045066;28;20042;-62
2022/09/15 06:11:18;;;;;;;13.90;4.18;;;;;;;;;;10033029;28;20056;-61
2022/09/15 06:16:14;;;;;;;9.77;4.35;;;;;;;;;;10031852;28;20047;-60
2022/09/15 06:21:17;;;;;;;13.43;4.65;;;;;;;;;;10029664;28;20121;-62
2022/09/15 06:26:17;;;;;;;10.23;3.42;;;;;;;;;;10038501;28;20080;-61
2022/09/15 06:31:14;;;;;;;8.75;3.50;;;;;;;;;;10039222;28;20073;-60
2022/09/15 06:36:10;;;;;;;13.25;3.78;;;;;;;;;;10052664;28;20046;-60
2022/09/15 06:41:05;;;;;;;15.68;4.00;;;;;;;;;;10031320;28;20077;-61
2022/09/15 06:46:35;;;;;;;8.23;3.88;;;;;;;;;;10062256;28;20139;-60
2022/09/15 06:51:34;;;;;;;13.00;4.75;;;;;;;;;;10040343;28;20062;-61
2022/09/15 06:56:28;;;;;;;21.85;5.53;;;;;;;;;;10041912;28;20099;-60
2022/09/15 07:01:31;;;;;;;11.00;5.35;;;;;;;;;;10034438;28;20136;-61
2022/09/15 07:06:27;;;;;;;15.10;5.65;;;;;;;;;;10043704;28;20054;-60
2022/09/15 07:11:21;;;;;;;7.93;5.32;;;;;;;;;;10046327;28;20144;-60
2022/09/15 07:16:17;;;;;;;22.05;5.40;;;;;;;;;;10043370;28;20056;-60
2022/09/15 07:21:15;;;;;;;11.55;7.28;;;;;;;;;;10038399;28;20117;-60
2022/09/15 07:26:15;;;;;;;24.27;6.18;;;;;;;;;;10033620;28;20050;-60
2022/09/15 07:31:11;;;;;;;12.15;5.63;;;;;;;;;;10035387;28;20132;-60
2022/09/15 07:36:05;;;;;;;9.65;5.75;;;;;;;;;;10039941;28;20038;-60
2022/09/15 07:41:10;;;;;;;23.73;5.85;;;;;;;;;;10036419;28;20100;-60
2022/09/15 07:46:03;;;;;;;17.75;6.82;;;;;;;;;;10040827;28;20069;-60
2022/09/15 07:50:58;;;;;;;16.40;6.80;;;;;;;;;;10042963;28;20080;-60
2022/09/15 07:55:53;;;;;;;13.40;5.72;;;;;;;;;;10044735;28;20382;-60
2022/09/15 08:00:46;;;;;;;14.63;5.50;;;;;;;;;;10051493;28;20069;-60
2022/09/15 08:05:41;;;;;;;20.50;6.85;;;;;;;;;;10048261;28;20132;-60
2022/09/15 08:10:39;;;;;;;10.65;4.88;;;;;;;;;;10047754;28;20041;-61
2022/09/15 08:15:36;;;;;;;11.07;3.90;;;;;;;;;;10060175;28;20058;-61
2022/09/15 08:20:31;;;;;;;17.90;3.95;;;;;;;;;;10050896;28;20042;-61
2022/09/15 08:25:29;;;;;;;11.98;3.97;;;;;;;;;;10041932;28;20192;-61
2022/09/15 08:30:22;;;;;;;13.93;3.78;;;;;;;;;;10068684;28;20085;-61
2022/09/15 08:35:16;;;;;;;14.07;3.20;;;;;;;;;;10046548;28;20081;-61
2022/09/15 08:40:22;;;;;;;9.65;2.72;;;;;;;;;;10016872;28;20050;-61
2022/09/15 08:45:23;;;;;;;14.32;3.10;;;;;;;;;;10033556;28;20053;-61
2022/09/15 08:50:29;;;;;;;9.65;2.25;;;;;;;;;;10024723;28;20044;-61
2022/09/15 08:55:34;;;;;;;10.00;2.20;;;;;;;;;;10046169;28;20045;-62
2022/09/15 09:00:28;;;;;;;17.30;3.55;;;;;;;;;;10042201;28;20048;-60
2022/09/15 09:05:46;;;;;;;13.30;3.13;;;;;;;;;;10041245;28;20065;-61
2022/09/15 09:11:12;;;;;;;9.55;2.50;;;;;;;;;;10054248;28;20068;-61
2022/09/15 09:16:36;;;;;;;14.00;3.00;;;;;;;;;;10060554;28;20042;-61
2022/09/15 09:21:41;;;;;;;11.18;3.38;;;;;;;;;;10036443;28;20144;-61
2022/09/15 09:26:35;;;;;;;12.45;3.50;;;;;;;;;;10039779;28;20049;-63
2022/09/15 09:31:29;;;;;;;16.75;4.70;;;;;;;;;;10034023;28;20517;-61
2022/09/15 09:36:22;;;;;;;11.10;3.25;;;;;;;;;;10039992;28;20076;-60
2022/09/15 09:41:25;;;;;;;13.85;3.25;;;;;;;;;;10034402;28;20045;-60
2022/09/15 09:46:20;;;;;;;8.40;2.78;;;;;;;;;;10038163;28;20416;-60
2022/09/15 09:51:34;;;;;;;13.32;3.65;;;;;;;;;;10029630;28;20050;-60
2022/09/15 09:56:29;;;;;;;10.38;3.90;;;;;;;;;;10036388;28;20045;-60
2022/09/15 10:01:24;;;;;;;13.93;3.72;;;;;;;;;;10041869;28;20409;-61
2022/09/15 10:06:27;;;;;;;10.02;3.25;;;;;;;;;;10041608;28;20084;-61
2022/09/15 10:11:21;;;;;;;7.22;2.33;;;;;;;;;;10058918;28;20103;-60
2022/09/15 10:16:18;;;;;;;12.15;3.05;;;;;;;;;;10054165;28;20154;-68
2022/09/15 10:21:14;;;;;;;11.40;3.80;;;;;;;;;;10034275;28;20046;-60
2022/09/15 10:26:19;;;;;;;16.50;3.15;;;;;;;;;;10029396;28;20057;-62
2022/09/15 10:31:27;;;;;;;19.38;4.13;;;;;;;;;;10030746;28;20049;-61
2022/09/15 10:36:23;;;;;;;9.52;2.50;;;;;;;;;;10010957;28;20045;-60
2022/09/15 10:41:19;;;;;;;16.92;3.58;;;;;;;;;;10028168;28;20057;-60
2022/09/15 10:46:25;;;;;;;14.37;2.73;;;;;;;;;;10028963;28;20054;-60
2022/09/15 10:51:30;;;;;;;12.43;3.38;;;;;;;;;;10031342;28;20068;-60
2022/09/15 10:56:28;;;;;;;7.95;2.53;;;;;;;;;;10032633;28;20077;-59
2022/09/15 11:01:39;;;;;;;9.23;2.25;;;;;;;;;;10042413;28;20059;-60
2022/09/15 11:06:37;;;;;;;16.23;3.22;;;;;;;;;;10028660;28;20412;-60
2022/09/15 11:11:50;;;;;;;20.83;4.15;;;;;;;;;;10035898;28;20480;-59
2022/09/15 11:17:08;;;;;;;28.60;4.70;;;;;;;;;;10025936;28;20409;-59
2022/09/15 11:22:50;;;;;;;18.67;4.77;;;;;;;;;;10035385;28;20105;-58
2022/09/15 11:28:05;;;;;;;35.95;5.45;;;;;;;;;;9992537;28;20056;-60
2022/09/15 11:33:16;;;;;;;17.73;4.28;;;;;;;;;;10026851;28;20497;-61
2022/09/15 11:38:49;;;;;;;27.63;4.05;;;;;;;;;;10023632;28;20493;-61
2022/09/15 11:44:04;;;;;;;35.88;6.30;;;;;;;;;;9976058;28;20560;-61
2022/09/15 11:49:13;;;;;;;18.58;3.28;;;;;;;;;;10028962;28;20064;-60
2022/09/15 11:54:25;;;;;;;15.90;2.50;;;;;;;;;;10034944;28;20390;-61
2022/09/15 11:59:43;;;;;;;8.02;1.35;;;;;;;;;;10037544;28;20050;-61
2022/09/15 12:04:53;;;;;;;11.63;1.73;;;;;;;;;;10033422;28;20444;-61
2022/09/15 12:09:48;;;;;;;9.93;2.53;;;;;;;;;;10042279;28;20444;-62
2022/09/15 12:14:45;;;;;;;8.75;2.15;;;;;;;;;;10040402;28;20120;-62
2022/09/15 12:19:47;;;;;;;7.53;2.33;;;;;;;;;;10035938;28;20088;-60
2022/09/15 12:24:48;;;;;;;11.52;2.40;;;;;;;;;;10029813;28;20113;-59
2022/09/15 12:29:59;;;;;;;8.40;1.40;;;;;;;;;;10016146;28;20137;-58
2022/09/15 12:35:16;;;;;;;8.27;1.42;;;;;;;;;;10031792;28;20140;-58
2022/09/15 12:40:36;;;;;;;7.32;1.77;;;;;;;;;;10040759;28;20050;-58
2022/09/15 12:45:32;;;;;;;14.77;2.13;;;;;;;;;;10002037;28;20509;-59
2022/09/15 12:50:30;;;;;;;8.70;1.73;;;;;;;;;;10034431;28;20064;-59
2022/09/15 12:55:34;;;;;;;11.82;2.28;;;;;;;;;;10016627;28;20068;-58
2022/09/15 13:00:33;;;;;;;6.25;1.67;;;;;;;;;;10045345;28;20096;-58
2022/09/15 13:05:41;;;;;;;14.85;2.63;;;;;;;;;;10035544;28;20411;-58
2022/09/15 13:10:39;;;;;;;9.70;3.38;;;;;;;;;;10039637;28;20057;-58
2022/09/15 13:15:33;;;;;;;11.63;2.33;;;;;;;;;;10039722;28;20050;-58
2022/09/15 13:20:30;;;;;;;11.40;2.25;;;;;;;;;;10028274;28;20054;-58
2022/09/15 13:25:29;;;;;;;20.27;4.03;;;;;;;;;;10034083;28;20049;-58
2022/09/15 13:30:47;;;;;;;7.95;2.30;;;;;;;;;;10037517;28;20124;-58
2022/09/15 13:36:18;;;;;;;12.82;2.35;;;;;;;;;;10040247;28;20474;-58
2022/09/15 13:41:23;;;;;;;12.32;2.15;;;;;;;;;;10033377;28;20575;-58
2022/09/15 13:46:34;;;;;;;12.13;4.50;;;;;;;;;;10033919;28;20103;-58
2022/09/15 13:51:30;;;;;;;15.20;3.65;;;;;;;;;;10039640;28;20052;-59
2022/09/15 13:56:26;;;;;;;20.02;4.32;;;;;;;;;;10034485;28;20045;-59
2022/09/15 14:01:33;;;;;;;12.45;3.33;;;;;;;;;;10037125;28;20088;-59
2022/09/15 14:06:34;;;;;;;13.02;2.65;;;;;;;;;;10025103;28;20054;-60
2022/09/15 14:11:31;;;;;;;27.77;5.15;;;;;;;;;;10014628;28;20129;-61
2022/09/15 14:16:34;;;;;;;12.07;3.70;;;;;;;;;;10037951;28;20057;-59
2022/09/15 14:21:31;;;;;;;13.32;4.20;;;;;;;;;;10029849;28;20088;-61
2022/09/15 14:26:27;;;;;;;15.48;3.95;;;;;;;;;;10034602;28;20061;-61
2022/09/15 14:31:46;;;;;;;20.33;3.25;;;;;;;;;;10036826;28;20058;-60
2022/09/15 14:36:39;;;;;;;11.05;2.72;;;;;;;;;;10031678;28;20052;-60
2022/09/15 14:41:35;;;;;;;7.57;2.13;;;;;;;;;;10010368;28;20081;-59
2022/09/15 14:46:37;;;;;;;12.15;2.05;;;;;;;;;;10027335;28;20057;-59
2022/09/15 14:51:32;;;;;;;6.35;1.80;;;;;;;;;;10032286;28;20523;-60
2022/09/15 14:56:27;;;;;;;8.40;1.98;;;;;;;;;;10027699;28;20049;-60
2022/09/15 15:01:35;;;;;;;8.98;2.70;;;;;;;;;;10017418;28;20054;-60
2022/09/15 15:06:36;;;;;;;9.15;1.90;;;;;;;;;;10025465;28;20101;-61
2022/09/15 15:11:30;;;;;;;9.23;2.28;;;;;;;;;;10035136;28;20120;-61
2022/09/15 15:16:28;;;;;;;12.25;2.90;;;;;;;;;;10029850;28;20073;-61
2022/09/15 15:21:39;;;;;;;6.60;2.33;;;;;;;;;;10027840;28;20504;-61
2022/09/15 15:26:37;;;;;;;8.95;1.65;;;;;;;;;;10028416;28;20088;-60
2022/09/15 15:31:31;;;;;;;;;;;;;;;;;;10028684;28;20045;-59
2022/09/15 15:36:27;;;;;;;11.65;2.47;;;;;;;;;;10026179;28;19968;-60
2022/09/15 15:41:32;;;;;;;12.43;3.13;;;;;;;;;;10028435;28;20092;-60
2022/09/15 15:46:48;;;;;;;19.23;4.25;;;;;;;;;;10050232;28;20057;-60
2022/09/15 15:51:46;;;;;;;16.40;2.80;;;;;;;;;;10044445;28;20513;-60
2022/09/15 15:56:41;;;;;;;12.75;2.78;;;;;;;;;;10039081;28;20551;-60
2022/09/15 16:01:35;;;;;;;11.88;2.85;;;;;;;;;;10042249;28;20053;-60
2022/09/15 16:06:32;;;;;;;13.77;2.67;;;;;;;;;;10056934;28;20049;-60
2022/09/15 16:11:26;;;;;;;12.27;2.67;;;;;;;;;;10045753;28;20061;-60
2022/09/15 16:16:22;;;;;;;10.40;3.97;;;;;;;;;;10054246;28;20073;-60
2022/09/15 16:21:35;;;;;;;16.15;2.58;;;;;;;;;;10057075;28;20411;-61
2022/09/15 16:26:30;;;;;;;17.52;2.55;;;;;;;;;;10040007;28;20041;-61
2022/09/15 16:31:24;;;;;;;14.02;2.40;;;;;;;;;;10049179;28;20061;-61
2022/09/15 16:36:17;;;;;;;10.95;2.97;;;;;;;;;;10045489;28;20064;-61
2022/09/15 16:41:35;;;;;;;12.02;2.30;;;;;;;;;;10042908;28;20041;-60
2022/09/15 16:46:31;;;;;;;8.23;2.80;;;;;;;;;;10045745;28;20128;-61
2022/09/15 16:51:26;;;;;;;8.02;2.40;;;;;;;;;;10043660;28;20405;-61
2022/09/15 16:56:23;;;;;;;7.97;4.13;;;;;;;;;;10038006;28;20216;-60
2022/09/15 17:01:19;;;;;;;11.07;2.17;;;;;;;;;;10061088;28;20053;-60
2022/09/15 17:06:16;;;;;;;13.15;2.30;;;;;;;;;;10071895;28;20085;-61
2022/09/15 17:11:14;;;;;;;9.43;2.65;;;;;;;;;;10045491;28;20053;-61
2022/09/15 17:16:09;;;;;;;8.23;3.00;;;;;;;;;;10034730;28;20471;-60
2022/09/15 17:21:04;;;;;;;7.47;2.10;;;;;;;;;;10051149;28;20098;-60
2022/09/15 17:25:59;;;;;;;9.10;2.05;;;;;;;;;;10036362;28;20100;-61
2022/09/15 17:31:17;;;;;;;7.38;2.47;;;;;;;;;;10042049;28;20061;-60
2022/09/15 17:36:11;;;;;;;15.48;2.83;;;;;;;;;;10051196;28;20068;-60
2022/09/15 17:41:06;;;;;;;7.35;1.60;;;;;;;;;;10041271;28;20107;-61
2022/09/15 17:46:01;;;;;;;6.53;2.55;;;;;;;;;;10040964;28;20049;-59
2022/09/15 17:50:56;;;;;;;9.15;2.20;;;;;;;;;;10051970;28;20069;-61
2022/09/15 17:55:50;;;;;;;5.97;2.20;;;;;;;;;;10052273;28;20045;-61
2022/09/15 18:00:44;;;;;;;6.90;1.95;;;;;;;;;;10058376;28;20091;-60
2022/09/15 18:05:38;;;;;;;7.88;2.88;;;;;;;;;;10067206;28;20107;-59
2022/09/15 18:10:33;;;;;;;7.30;2.08;;;;;;;;;;10054051;28;20048;-60
2022/09/15 18:15:28;;;;;;;4.40;1.90;;;;;;;;;;10036581;28;20053;-61
2022/09/15 18:20:25;;;;;;;4.75;1.67;;;;;;;;;;10037696;28;20049;-60
2022/09/15 18:25:22;;;;;;;7.55;2.10;;;;;;;;;;10031898;28;20089;-60
2022/09/15 18:30:17;;;;;;;4.28;1.70;;;;;;;;;;10056726;28;20101;-61
2022/09/15 18:35:13;;;;;;;5.35;2.53;;;;;;;;;;10065963;28;20133;-62
2022/09/15 18:40:16;;;;;;;7.30;1.85;;;;;;;;;;10052006;28;20049;-61
2022/09/15 18:45:13;;;;;;;5.50;2.03;;;;;;;;;;10038662;28;20060;-61
2022/09/15 18:50:08;;;;;;;5.00;2.25;;;;;;;;;;10039896;28;20053;-60
2022/09/15 18:55:03;;;;;;;6.18;2.22;;;;;;;;;;10017486;28;20041;-60
2022/09/15 18:59:58;;;;;;;8.00;2.13;;;;;;;;;;10018653;28;20536;-60
2022/09/15 19:04:52;;;;;;;5.63;2.20;;;;;;;;;;10020494;28;20136;-61
2022/09/15 19:09:49;;;;;;;7.50;2.55;;;;;;;;;;10009456;28;20054;-61
2022/09/15 19:14:48;;;;;;;9.55;2.15;;;;;;;;;;10026602;28;20042;-61
2022/09/15 19:19:42;;;;;;;5.38;3.13;;;;;;;;;;10024440;28;20104;-60
2022/09/15 19:24:37;;;;;;;5.57;2.13;;;;;;;;;;10026975;28;20453;-60
2022/09/15 19:29:33;;;;;;;5.40;1.73;;;;;;;;;;10029149;28;20772;-59
2022/09/15 19:34:26;;;;;;;5.65;1.55;;;;;;;;;;10029520;28;20449;-59
2022/09/15 19:39:20;;;;;;;7.97;2.15;;;;;;;;;;10028993;28;20441;-60
2022/09/15 19:44:14;;;;;;;10.30;3.20;;;;;;;;;;10028520;28;20456;-59
2022/09/15 19:49:08;;;;;;;7.45;2.53;;;;;;;;;;10029835;28;20123;-59
2022/09/15 19:54:02;;;;;;;7.00;1.73;;;;;;;;;;10030311;28;20050;-58
2022/09/15 19:58:58;;;;;;;5.85;2.15;;;;;;;;;;10027989;28;20871;-58
2022/09/15 20:03:53;;;;;;;6.25;1.88;;;;;;;;;;10028036;28;20069;-59
2022/09/15 20:08:47;;;;;;;2.45;1.63;;;;;;;;;;10029223;28;20046;-58
2022/09/15 20:13:44;;;;;;;4.10;1.80;;;;;;;;;;10032125;28;20038;-58
2022/09/15 20:18:41;;;;;;;4.97;1.80;;;;;;;;;;10035855;28;20058;-58
2022/09/15 20:23:35;;;;;;;5.45;1.95;;;;;;;;;;10033679;28;20050;-58
2022/09/15 20:28:29;;;;;;;9.02;1.67;;;;;;;;;;10030902;28;20158;-60
2022/09/15 20:33:25;;;;;;;9.90;2.65;;;;;;;;;;10028570;28;20064;-59
2022/09/15 20:38:21;;;;;;;6.95;1.80;;;;;;;;;;10035747;28;20045;-59
2022/09/15 20:43:19;;;;;;;4.93;1.67;;;;;;;;;;10025718;28;20116;-58
2022/09/15 20:48:16;;;;;;;4.05;1.67;;;;;;;;;;10035472;28;20404;-58
2022/09/15 20:53:11;;;;;;;4.85;1.83;;;;;;;;;;10033514;28;20047;-63
2022/09/15 20:58:06;;;;;;;5.93;1.63;;;;;;;;;;10038508;28;20053;-59
2022/09/15 21:03:01;;;;;;;10.43;4.78;;;;;;;;;;10040071;28;20050;-58
2022/09/15 21:07:56;;;;;;;5.45;2.35;;;;;;;;;;10036746;28;20086;-59
2022/09/15 21:12:50;;;;;;;6.70;2.25;;;;;;;;;;10038781;28;20050;-59
2022/09/15 21:17:45;;;;;;;8.70;2.67;;;;;;;;;;10031576;28;20132;-58
2022/09/15 21:22:40;;;;;;;2.20;1.65;;;;;;;;;;10041236;28;20045;-59
2022/09/15 21:27:34;;;;;;;5.10;1.73;;;;;;;;;;10032016;28;20062;-59
2022/09/15 21:32:28;;;;;;;3.08;1.63;;;;;;;;;;10033629;28;20050;-59
2022/09/15 21:37:26;;;;;;;4.30;1.67;;;;;;;;;;10037332;28;20041;-59
2022/09/15 21:42:22;;;;;;;4.35;1.77;;;;;;;;;;10042229;28;20140;-60
2022/09/15 21:47:19;;;;;;;2.92;1.45;;;;;;;;;;10038110;28;20054;-60
2022/09/15 21:52:13;;;;;;;3.47;1.48;;;;;;;;;;10035502;28;20551;-60
2022/09/15 21:57:07;;;;;;;8.13;1.75;;;;;;;;;;10036005;28;20057;-59
2022/09/15 22:02:01;;;;;;;3.78;2.15;;;;;;;;;;10034016;28;20042;-60
2022/09/15 22:06:57;;;;;;;6.47;1.70;;;;;;;;;;10034686;28;20046;-60
2022/09/15 22:11:52;;;;;;;2.88;1.92;;;;;;;;;;10029306;28;20485;-60
2022/09/15 22:16:47;;;;;;;3.70;1.75;;;;;;;;;;10029042;28;20053;-60
2022/09/15 22:21:42;;;;;;;2.47;1.65;;;;;;;;;;10028450;28;20045;-60
2022/09/15 22:26:37;;;;;;;2.63;1.80;;;;;;;;;;10033767;28;20084;-59
2022/09/15 22:31:33;;;;;;;3.67;1.90;;;;;;;;;;10031711;28;20141;-59
2022/09/15 22:36:29;;;;;;;3.08;1.70;;;;;;;;;;10015119;28;20049;-59
2022/09/15 22:41:24;;;;;;;3.53;1.60;;;;;;;;;;10034215;28;20066;-60
2022/09/15 22:46:18;;;;;;;2.85;1.50;;;;;;;;;;10043731;28;20037;-60
2022/09/15 22:51:13;;;;;;;3.00;1.35;;;;;;;;;;10051860;28;20129;-60
2022/09/15 22:56:13;;;;;;;5.88;1.50;;;;;;;;;;10052163;28;20111;-60
2022/09/15 23:01:15;;;;;;;4.35;1.48;;;;;;;;;;10043638;28;20059;-59
2022/09/15 23:06:10;;;;;;;4.70;1.40;;;;;;;;;;10061131;28;20132;-59
2022/09/15 23:11:06;;;;;;;1.63;1.30;;;;;;;;;;10040368;28;20050;-58
2022/09/15 23:16:01;;;;;;;4.45;1.38;;;;;;;;;;10038836;28;20053;-59
2022/09/15 23:21:00;;;;;;;3.05;1.40;;;;;;;;;;10056601;28;20076;-60
2022/09/15 23:25:54;;;;;;;3.88;1.42;;;;;;;;;;10039527;28;20061;-60
2022/09/15 23:30:53;;;;;;;4.70;2.00;;;;;;;;;;10053175;28;20130;-59
2022/09/15 23:35:47;;;;;;;3.90;1.45;;;;;;;;;;10052299;28;20060;-59
2022/09/15 23:40:41;;;;;;;4.35;1.55;;;;;;;;;;10033699;28;20477;-59
2022/09/15 23:45:36;;;;;;;4.68;1.67;;;;;;;;;;10050559;28;20046;-60
2022/09/15 23:50:31;;;;;;;6.63;1.40;;;;;;;;;;10059586;28;20081;-59
2022/09/15 23:55:24;;;;;;;8.07;1.63;;;;;;;;;;10057250;28;20066;-59
